Time;durP1;ratioP1;P1;durP2;ratioP2;P2;SDS_P1;SDS_P2;PMS_P1;PMS_P2;Temp;Humidity;BMP_temperature;BMP_pressure;BME280_temperature;BME280_humidity;BME280_pressure;Samples;Min_cycle;Max_cycle;Signal;HPM_P1;HPM_P2
2023/05/08 00:01:36;;;;;;;4.65;3.60;;;;;;;;;;5020074;28;20041;-82
2023/05/08 00:04:02;;;;;;;6.30;4.20;;;;;;;;;;5024256;28;20069;-82
2023/05/08 00:06:27;;;;;;;6.25;3.67;;;;;;;;;;5026711;28;20109;-82
2023/05/08 00:08:56;;;;;;;4.78;3.45;;;;;;;;;;5028385;28;20427;-82
2023/05/08 00:11:22;;;;;;;6.22;3.45;;;;;;;;;;5032055;28;20654;-83
2023/05/08 00:13:47;;;;;;;5.45;3.65;;;;;;;;;;5028358;28;20117;-83
2023/05/08 00:16:13;;;;;;;5.32;3.72;;;;;;;;;;5031024;28;20056;-82
2023/05/08 00:18:39;;;;;;;5.07;3.60;;;;;;;;;;5020064;28;20064;-82
2023/05/08 00:21:04;;;;;;;5.78;3.50;;;;;;;;;;5023362;28;20065;-82
2023/05/08 00:23:30;;;;;;;4.45;3.45;;;;;;;;;;5025883;28;20523;-82
2023/05/08 00:25:56;;;;;;;5.40;3.63;;;;;;;;;;5029456;28;20685;-82
2023/05/08 00:28:22;;;;;;;5.70;3.63;;;;;;;;;;5033248;28;20037;-82
2023/05/08 00:30:47;;;;;;;7.78;3.65;;;;;;;;;;5024158;28;20112;-82
2023/05/08 00:33:13;;;;;;;5.90;3.75;;;;;;;;;;5030932;28;20102;-82
2023/05/08 00:35:41;;;;;;;6.85;4.40;;;;;;;;;;5014833;28;20038;-82
2023/05/08 00:38:06;;;;;;;7.85;4.32;;;;;;;;;;5031627;28;20030;-82
2023/05/08 00:40:32;;;;;;;6.03;4.72;;;;;;;;;;5026700;28;20041;-82
2023/05/08 00:42:57;;;;;;;6.80;4.93;;;;;;;;;;5029504;28;20034;-83
2023/05/08 00:45:23;;;;;;;6.72;4.90;;;;;;;;;;5033174;28;20099;-82
2023/05/08 00:47:49;;;;;;;8.68;4.82;;;;;;;;;;5029871;28;20030;-83
2023/05/08 00:50:16;;;;;;;7.40;4.85;;;;;;;;;;5018059;28;20484;-83
2023/05/08 00:52:42;;;;;;;6.78;4.70;;;;;;;;;;5021638;28;20041;-83
2023/05/08 00:55:07;;;;;;;6.68;5.00;;;;;;;;;;5030984;28;20433;-82
2023/05/08 00:57:34;;;;;;;9.07;5.05;;;;;;;;;;5027040;28;20120;-82
2023/05/08 01:00:01;;;;;;;7.68;5.32;;;;;;;;;;5029492;28;20033;-82
2023/05/08 01:02:30;;;;;;;6.55;5.10;;;;;;;;;;5026439;28;20034;-82
2023/05/08 01:04:55;;;;;;;6.57;4.72;;;;;;;;;;5014725;28;20041;-82
2023/05/08 01:07:21;;;;;;;7.45;5.38;;;;;;;;;;5030391;28;20045;-82
2023/05/08 01:09:47;;;;;;;9.68;5.90;;;;;;;;;;5013836;28;20037;-82
2023/05/08 01:12:29;;;;;;;7.95;5.95;;;;;;;;;;5025001;28;20143;-82
2023/05/08 01:15:01;;;;;;;8.55;6.10;;;;;;;;;;5030133;28;20040;-82
2023/05/08 01:17:55;;;;;;;9.70;6.32;;;;;;;;;;5027910;28;20042;-82
2023/05/08 01:20:35;;;;;;;9.23;6.10;;;;;;;;;;5029304;28;20148;-83
2023/05/08 01:23:16;;;;;;;7.63;5.97;;;;;;;;;;5030268;28;20030;-83
2023/05/08 01:26:30;;;;;;;8.57;6.20;;;;;;;;;;5025990;28;20037;-82
2023/05/08 01:29:14;;;;;;;7.78;6.50;;;;;;;;;;5024862;28;20076;-82
2023/05/08 01:31:58;;;;;;;;;;;;;;;;;;5017855;28;20061;-80
2023/05/08 01:34:30;;;;;;;7.28;5.90;;;;;;;;;;5015465;28;19960;-82
2023/05/08 01:37:13;;;;;;;12.73;6.15;;;;;;;;;;5015206;28;20500;-82
2023/05/08 01:40:04;;;;;;;11.57;6.80;;;;;;;;;;5018027;28;20411;-82
2023/05/08 01:42:29;;;;;;;10.55;6.82;;;;;;;;;;4997697;28;20372;-82
2023/05/08 01:45:06;;;;;;;11.50;6.40;;;;;;;;;;5014112;28;20045;-82
2023/05/08 01:47:34;;;;;;;9.90;6.80;;;;;;;;;;5024895;28;20038;-82
2023/05/08 01:50:15;;;;;;;8.75;6.47;;;;;;;;;;5031393;28;20040;-82
2023/05/08 01:52:45;;;;;;;8.57;6.18;;;;;;;;;;5027230;28;20085;-82
2023/05/08 01:55:26;;;;;;;8.50;6.40;;;;;;;;;;5019681;28;20029;-82
2023/05/08 01:57:55;;;;;;;7.53;6.05;;;;;;;;;;5034456;28;20037;-82
2023/05/08 02:00:22;;;;;;;8.80;7.05;;;;;;;;;;5027792;28;20033;-82
2023/05/08 02:02:49;;;;;;;9.40;7.25;;;;;;;;;;5035142;28;20030;-82
2023/05/08 02:05:17;;;;;;;9.30;6.97;;;;;;;;;;5035824;28;20033;-82
2023/05/08 02:07:46;;;;;;;10.43;7.20;;;;;;;;;;5034455;28;20064;-82
2023/05/08 02:10:14;;;;;;;12.02;7.28;;;;;;;;;;5019142;28;20038;-82
2023/05/08 02:12:40;;;;;;;9.40;6.70;;;;;;;;;;5021430;28;20057;-82
2023/05/08 02:15:08;;;;;;;8.55;6.18;;;;;;;;;;5033946;28;20037;-82
2023/05/08 02:17:36;;;;;;;8.30;6.43;;;;;;;;;;5027026;28;20099;-82
2023/05/08 02:20:03;;;;;;;9.15;6.50;;;;;;;;;;5034768;28;20021;-82
2023/05/08 02:22:31;;;;;;;8.23;6.53;;;;;;;;;;5035330;28;20047;-82
2023/05/08 02:24:57;;;;;;;9.85;6.65;;;;;;;;;;5032319;28;20043;-82
2023/05/08 02:27:26;;;;;;;10.52;6.88;;;;;;;;;;5020670;28;20068;-81
2023/05/08 02:29:53;;;;;;;11.60;7.05;;;;;;;;;;5033116;28;20372;-82
2023/05/08 02:32:20;;;;;;;10.07;6.72;;;;;;;;;;5025052;28;20041;-82
2023/05/08 02:34:48;;;;;;;10.75;6.28;;;;;;;;;;5034995;28;20071;-82
2023/05/08 02:37:17;;;;;;;8.55;6.38;;;;;;;;;;5034038;28;20056;-82
2023/05/08 02:39:44;;;;;;;9.15;6.88;;;;;;;;;;5035131;28;20036;-82
2023/05/08 02:42:10;;;;;;;9.43;6.70;;;;;;;;;;5032218;28;20034;-82
2023/05/08 02:44:36;;;;;;;12.05;6.75;;;;;;;;;;5032651;28;20037;-82
2023/05/08 02:47:28;;;;;;;9.60;6.57;;;;;;;;;;5033942;28;20495;-82
2023/05/08 02:50:25;;;;;;;8.40;6.82;;;;;;;;;;5020496;28;20439;-82
2023/05/08 02:52:59;;;;;;;12.07;6.75;;;;;;;;;;5031822;28;20041;-82
2023/05/08 02:55:25;;;;;;;9.35;7.10;;;;;;;;;;5032447;28;20037;-82
2023/05/08 02:58:45;;;;;;;10.30;6.95;;;;;;;;;;5029896;28;20045;-82
2023/05/08 03:01:20;;;;;;;9.48;6.80;;;;;;;;;;4936973;29;20449;-82
2023/05/08 03:03:55;;;;;;;10.50;7.75;;;;;;;;;;5013916;28;20507;-82
2023/05/08 03:06:23;;;;;;;9.45;7.10;;;;;;;;;;5025188;28;20076;-82
2023/05/08 03:08:51;;;;;;;9.13;6.65;;;;;;;;;;5034143;28;20037;-82
2023/05/08 03:11:21;;;;;;;9.80;7.00;;;;;;;;;;5034983;28;20084;-82
2023/05/08 03:13:48;;;;;;;10.93;7.47;;;;;;;;;;5030878;28;20034;-82
2023/05/08 03:16:17;;;;;;;13.35;7.50;;;;;;;;;;5015893;28;20436;-82
2023/05/08 03:18:57;;;;;;;11.20;7.57;;;;;;;;;;5020268;28;20041;-82
2023/05/08 03:21:27;;;;;;;10.07;7.05;;;;;;;;;;5021885;28;20037;-82
2023/05/08 03:23:55;;;;;;;12.32;7.65;;;;;;;;;;5031459;28;20072;-82
2023/05/08 03:26:21;;;;;;;11.65;8.20;;;;;;;;;;5017288;28;20091;-82
2023/05/08 03:28:48;;;;;;;11.02;8.02;;;;;;;;;;5032594;28;20029;-82
2023/05/08 03:31:20;;;;;;;11.75;7.60;;;;;;;;;;5023148;28;20030;-82
2023/05/08 03:33:47;;;;;;;9.38;7.28;;;;;;;;;;5018606;28;20034;-82
2023/05/08 03:36:13;;;;;;;11.55;8.00;;;;;;;;;;5021937;28;20061;-82
2023/05/08 03:38:39;;;;;;;10.27;8.10;;;;;;;;;;5016432;28;20037;-82
2023/05/08 03:41:06;;;;;;;10.60;8.20;;;;;;;;;;5027580;28;20033;-82
2023/05/08 03:43:32;;;;;;;11.30;7.47;;;;;;;;;;5031486;28;20499;-82
2023/05/08 03:45:58;;;;;;;10.63;7.78;;;;;;;;;;5017570;28;20034;-82
2023/05/08 03:48:26;;;;;;;14.35;8.25;;;;;;;;;;5031191;28;20041;-82
2023/05/08 03:50:54;;;;;;;10.57;7.85;;;;;;;;;;5018926;28;20026;-82
2023/05/08 03:53:19;;;;;;;9.70;7.47;;;;;;;;;;5031760;28;20067;-82
2023/05/08 03:55:45;;;;;;;11.43;8.23;;;;;;;;;;5032690;28;20407;-82
2023/05/08 03:58:21;;;;;;;10.68;7.35;;;;;;;;;;5016622;28;20492;-82
2023/05/08 04:01:30;;;;;;;11.55;7.85;;;;;;;;;;5016933;28;20026;-82
2023/05/08 04:04:10;;;;;;;11.73;7.38;;;;;;;;;;5027225;28;20526;-82
2023/05/08 04:06:41;;;;;;;12.88;8.27;;;;;;;;;;5018555;28;20037;-82
2023/05/08 04:09:16;;;;;;;12.07;8.77;;;;;;;;;;5036516;28;20681;-82
2023/05/08 04:11:48;;;;;;;12.18;8.40;;;;;;;;;;5006735;28;20033;-82
2023/05/08 04:14:19;;;;;;;12.82;8.43;;;;;;;;;;5019155;28;20048;-82
2023/05/08 04:16:49;;;;;;;12.98;8.27;;;;;;;;;;5015829;28;20125;-82
2023/05/08 04:19:24;;;;;;;11.35;7.68;;;;;;;;;;5030089;28;20160;-82
2023/05/08 04:21:50;;;;;;;10.75;7.82;;;;;;;;;;5027168;28;20097;-82
2023/05/08 04:24:19;;;;;;;11.93;7.90;;;;;;;;;;5017611;28;20036;-82
2023/05/08 04:26:45;;;;;;;11.80;8.27;;;;;;;;;;5029547;28;20034;-82
2023/05/08 04:29:12;;;;;;;9.60;7.28;;;;;;;;;;5024095;28;20034;-82
2023/05/08 04:31:39;;;;;;;11.95;8.10;;;;;;;;;;5029394;28;20088;-82
2023/05/08 04:34:07;;;;;;;11.02;8.27;;;;;;;;;;5028922;28;20599;-82
2023/05/08 04:36:33;;;;;;;11.18;8.00;;;;;;;;;;5030243;28;20105;-82
2023/05/08 04:39:00;;;;;;;11.07;7.93;;;;;;;;;;5029759;28;20033;-82
2023/05/08 04:41:25;;;;;;;11.55;7.47;;;;;;;;;;5014351;28;20033;-82
2023/05/08 04:43:52;;;;;;;9.98;7.60;;;;;;;;;;5023168;28;20057;-82
2023/05/08 04:46:18;;;;;;;11.38;8.40;;;;;;;;;;5031799;28;20495;-82
2023/05/08 04:48:43;;;;;;;10.98;7.97;;;;;;;;;;5031519;28;20056;-82
2023/05/08 04:51:09;;;;;;;13.35;7.95;;;;;;;;;;5032008;28;20076;-82
2023/05/08 04:53:34;;;;;;;15.07;8.40;;;;;;;;;;5015259;28;20153;-82
2023/05/08 04:56:00;;;;;;;12.35;8.15;;;;;;;;;;5030304;28;20034;-82
2023/05/08 04:58:27;;;;;;;11.45;7.55;;;;;;;;;;5030386;28;20499;-82
2023/05/08 05:00:53;;;;;;;11.82;8.07;;;;;;;;;;5023057;28;20071;-82
2023/05/08 05:03:20;;;;;;;10.95;7.43;;;;;;;;;;5030321;28;20865;-82
2023/05/08 05:05:49;;;;;;;11.00;8.15;;;;;;;;;;5032539;28;20025;-82
2023/05/08 05:08:15;;;;;;;12.82;7.97;;;;;;;;;;5014093;28;20111;-81
2023/05/08 05:10:40;;;;;;;9.95;7.47;;;;;;;;;;5014206;28;20321;-82
2023/05/08 05:13:06;;;;;;;12.63;7.20;;;;;;;;;;5016387;28;20060;-82
2023/05/08 05:15:32;;;;;;;10.82;8.10;;;;;;;;;;5029743;28;20415;-82
2023/05/08 05:17:57;;;;;;;13.73;7.95;;;;;;;;;;5030205;28;20065;-82
2023/05/08 05:20:23;;;;;;;11.30;8.23;;;;;;;;;;5030695;28;20056;-82
2023/05/08 05:22:49;;;;;;;10.70;7.43;;;;;;;;;;5031788;28;20476;-81
2023/05/08 05:25:14;;;;;;;9.05;6.85;;;;;;;;;;5028995;28;20468;-82
2023/05/08 05:27:40;;;;;;;11.00;7.53;;;;;;;;;;5014301;28;20491;-83
2023/05/08 05:30:07;;;;;;;11.20;7.82;;;;;;;;;;5028491;28;20116;-83
2023/05/08 05:32:32;;;;;;;11.00;7.32;;;;;;;;;;5021821;28;20581;-82
2023/05/08 05:34:58;;;;;;;9.38;6.95;;;;;;;;;;5030598;28;20109;-82
2023/05/08 05:37:23;;;;;;;10.13;7.25;;;;;;;;;;5030933;28;20029;-82
2023/05/08 05:39:49;;;;;;;8.45;6.78;;;;;;;;;;5030995;28;20407;-82
2023/05/08 05:42:15;;;;;;;10.90;7.03;;;;;;;;;;5031063;28;20116;-82
2023/05/08 05:44:41;;;;;;;10.38;7.03;;;;;;;;;;5026953;28;20037;-82
2023/05/08 05:47:09;;;;;;;9.15;7.10;;;;;;;;;;5025317;28;20044;-82
2023/05/08 05:49:35;;;;;;;12.88;7.28;;;;;;;;;;5021717;28;20036;-82
2023/05/08 05:52:01;;;;;;;11.90;7.97;;;;;;;;;;5018738;28;20037;-82
2023/05/08 05:54:26;;;;;;;10.35;7.72;;;;;;;;;;4998501;28;20416;-82
2023/05/08 05:56:52;;;;;;;12.45;8.48;;;;;;;;;;4996709;28;20682;-83
2023/05/08 05:59:17;;;;;;;11.43;8.30;;;;;;;;;;5013786;28;20053;-83
2023/05/08 06:01:43;;;;;;;10.38;7.75;;;;;;;;;;5015183;28;20030;-83
2023/05/08 06:04:08;;;;;;;12.32;8.27;;;;;;;;;;5017705;28;20044;-82
2023/05/08 06:06:34;;;;;;;14.60;8.48;;;;;;;;;;5021785;28;20046;-80
2023/05/08 06:09:00;;;;;;;13.25;9.20;;;;;;;;;;5030695;28;20034;-82
2023/05/08 06:11:26;;;;;;;12.20;7.50;;;;;;;;;;5028419;28;20032;-82
2023/05/08 06:13:52;;;;;;;11.23;8.30;;;;;;;;;;5029333;28;20041;-81
2023/05/08 06:16:21;;;;;;;11.73;7.68;;;;;;;;;;5025874;28;20518;-81
2023/05/08 06:18:47;;;;;;;9.77;7.70;;;;;;;;;;5015845;28;20038;-81
2023/05/08 06:21:13;;;;;;;12.15;8.00;;;;;;;;;;5012579;28;20057;-82
2023/05/08 06:23:38;;;;;;;10.48;8.23;;;;;;;;;;5021686;28;20045;-84
2023/05/08 06:26:04;;;;;;;10.20;7.75;;;;;;;;;;5024642;28;20053;-83
2023/05/08 06:28:29;;;;;;;10.15;7.88;;;;;;;;;;5029666;28;20033;-81
2023/05/08 06:30:55;;;;;;;10.35;7.97;;;;;;;;;;5022081;28;20060;-83
2023/05/08 06:33:20;;;;;;;13.10;8.70;;;;;;;;;;5027486;28;20586;-82
2023/05/08 06:35:47;;;;;;;12.65;8.70;;;;;;;;;;5012010;28;20128;-84
2023/05/08 06:38:13;;;;;;;11.65;9.02;;;;;;;;;;5020572;28;20503;-83
2023/05/08 06:40:43;;;;;;;14.30;8.40;;;;;;;;;;5033895;28;20033;-83
2023/05/08 06:43:09;;;;;;;13.82;9.13;;;;;;;;;;5021105;28;20150;-83
2023/05/08 06:45:34;;;;;;;13.65;8.68;;;;;;;;;;5031855;28;20074;-83
2023/05/08 06:48:00;;;;;;;13.13;8.25;;;;;;;;;;5018634;28;20034;-84
2023/05/08 06:50:25;;;;;;;12.75;9.65;;;;;;;;;;5023832;28;20276;-83
2023/05/08 06:52:51;;;;;;;14.02;9.50;;;;;;;;;;5023542;28;20091;-83
2023/05/08 06:55:16;;;;;;;14.35;9.38;;;;;;;;;;5025225;28;20037;-83
2023/05/08 06:57:42;;;;;;;13.27;9.35;;;;;;;;;;5017778;28;20443;-83
2023/05/08 07:00:08;;;;;;;13.25;9.15;;;;;;;;;;5034958;28;20109;-83
2023/05/08 07:02:34;;;;;;;12.05;9.05;;;;;;;;;;5037088;28;20029;-84
2023/05/08 07:04:59;;;;;;;10.88;7.85;;;;;;;;;;5027053;28;20034;-84
2023/05/08 07:07:25;;;;;;;10.10;7.50;;;;;;;;;;5040418;28;20069;-84
2023/05/08 07:09:50;;;;;;;11.65;7.95;;;;;;;;;;5029790;28;20037;-83
2023/05/08 07:12:16;;;;;;;12.02;9.10;;;;;;;;;;5036214;28;20038;-84
2023/05/08 07:14:42;;;;;;;13.60;8.80;;;;;;;;;;5033808;28;20107;-84
2023/05/08 07:17:08;;;;;;;11.05;8.10;;;;;;;;;;5034227;28;20033;-84
2023/05/08 07:19:37;;;;;;;16.25;9.77;;;;;;;;;;5018444;28;20040;-82
2023/05/08 07:22:03;;;;;;;15.50;9.15;;;;;;;;;;5031742;28;20049;-82
2023/05/08 07:24:29;;;;;;;13.88;8.40;;;;;;;;;;5019711;28;20069;-83
2023/05/08 07:26:55;;;;;;;12.93;8.60;;;;;;;;;;5032915;28;20111;-83
2023/05/08 07:29:20;;;;;;;17.92;9.48;;;;;;;;;;5026195;28;20033;-83
2023/05/08 07:31:47;;;;;;;14.23;8.93;;;;;;;;;;5033700;28;20037;-83
2023/05/08 07:34:13;;;;;;;15.77;9.20;;;;;;;;;;5032973;28;20033;-83
2023/05/08 07:36:39;;;;;;;13.02;8.52;;;;;;;;;;5029743;28;20124;-83
2023/05/08 07:39:05;;;;;;;14.45;9.52;;;;;;;;;;5017061;28;20480;-83
2023/05/08 07:41:31;;;;;;;13.18;9.35;;;;;;;;;;5021771;28;20026;-83
2023/05/08 07:43:56;;;;;;;25.65;9.60;;;;;;;;;;5032936;28;20037;-83
2023/05/08 07:46:22;;;;;;;22.98;10.23;;;;;;;;;;5032660;28;20499;-83
2023/05/08 07:48:47;;;;;;;13.90;10.05;;;;;;;;;;5032546;28;20041;-83
2023/05/08 07:51:14;;;;;;;18.08;10.43;;;;;;;;;;5036540;28;20038;-83
2023/05/08 07:53:39;;;;;;;24.73;10.80;;;;;;;;;;5033115;28;20049;-83
2023/05/08 07:56:05;;;;;;;24.67;9.00;;;;;;;;;;5035236;28;20034;-82
2023/05/08 07:58:30;;;;;;;15.95;8.77;;;;;;;;;;5023590;28;20064;-83
2023/05/08 08:00:56;;;;;;;21.02;8.55;;;;;;;;;;5037253;28;20037;-83
2023/05/08 08:03:21;;;;;;;16.75;9.07;;;;;;;;;;5033797;28;20033;-84
2023/05/08 08:05:47;;;;;;;15.20;8.98;;;;;;;;;;5037950;28;20034;-83
2023/05/08 08:08:12;;;;;;;14.07;9.13;;;;;;;;;;5039646;28;20048;-84
2023/05/08 08:10:38;;;;;;;13.98;8.95;;;;;;;;;;5021204;28;20041;-83
2023/05/08 08:13:04;;;;;;;18.00;9.75;;;;;;;;;;5024709;28;20049;-84
2023/05/08 08:15:30;;;;;;;16.85;9.15;;;;;;;;;;5028697;28;20076;-84
2023/05/08 08:17:56;;;;;;;18.58;10.00;;;;;;;;;;5031607;28;20046;-83
2023/05/08 08:20:22;;;;;;;14.35;8.68;;;;;;;;;;5039123;28;20125;-84
2023/05/08 08:22:47;;;;;;;15.65;10.02;;;;;;;;;;5037669;28;20041;-84
2023/05/08 08:25:13;;;;;;;12.70;8.52;;;;;;;;;;5037911;28;20138;-84
2023/05/08 08:27:38;;;;;;;14.38;9.80;;;;;;;;;;5021829;28;20403;-84
2023/05/08 08:30:05;;;;;;;17.98;10.77;;;;;;;;;;5025477;28;20041;-84
2023/05/08 08:32:30;;;;;;;14.68;9.77;;;;;;;;;;5028373;28;20042;-84
2023/05/08 08:34:56;;;;;;;17.17;10.20;;;;;;;;;;5021036;28;20041;-84
2023/05/08 08:37:22;;;;;;;16.48;9.73;;;;;;;;;;5034233;28;20044;-84
2023/05/08 08:39:47;;;;;;;18.67;10.90;;;;;;;;;;5035976;28;20116;-84
2023/05/08 08:42:13;;;;;;;21.65;10.93;;;;;;;;;;5034960;28;20080;-84
2023/05/08 08:44:38;;;;;;;22.35;11.05;;;;;;;;;;5024822;28;20038;-84
2023/05/08 08:47:05;;;;;;;16.73;10.48;;;;;;;;;;5028680;28;20049;-83
2023/05/08 08:49:37;;;;;;;18.35;10.98;;;;;;;;;;5031205;28;20554;-84
2023/05/08 08:52:14;;;;;;;22.13;12.00;;;;;;;;;;5033588;28;20038;-84
2023/05/08 08:54:42;;;;;;;20.92;10.65;;;;;;;;;;5035873;28;20045;-84
2023/05/08 08:57:09;;;;;;;20.75;12.07;;;;;;;;;;5039608;28;20103;-84
2023/05/08 08:59:37;;;;;;;24.92;11.60;;;;;;;;;;5031037;28;20474;-84
2023/05/08 09:02:10;;;;;;;20.75;12.00;;;;;;;;;;5024897;28;20042;-84
2023/05/08 09:04:36;;;;;;;21.37;12.27;;;;;;;;;;5027468;28;20045;-85
2023/05/08 09:07:04;;;;;;;29.38;13.23;;;;;;;;;;5037923;28;20044;-84
2023/05/08 09:09:32;;;;;;;22.63;12.50;;;;;;;;;;5027746;28;20629;-84
2023/05/08 09:11:58;;;;;;;87.18;13.80;;;;;;;;;;5024776;28;20488;-84
2023/05/08 09:14:25;;;;;;;21.30;12.18;;;;;;;;;;5022691;28;20042;-83
2023/05/08 09:16:52;;;;;;;22.38;11.60;;;;;;;;;;5022599;28;20041;-84
2023/05/08 09:19:18;;;;;;;22.73;12.57;;;;;;;;;;5024193;28;20124;-85
2023/05/08 09:21:44;;;;;;;21.67;13.02;;;;;;;;;;5027259;28;20065;-84
2023/05/08 09:24:10;;;;;;;25.70;14.27;;;;;;;;;;5030264;28;20045;-84
2023/05/08 09:26:39;;;;;;;24.58;13.48;;;;;;;;;;5032034;28;20041;-84
2023/05/08 09:29:15;;;;;;;24.77;12.20;;;;;;;;;;5024106;28;20089;-85
2023/05/08 09:31:46;;;;;;;36.40;14.35;;;;;;;;;;5021292;28;20049;-84
2023/05/08 09:34:32;;;;;;;40.65;14.02;;;;;;;;;;5023325;28;20080;-84
2023/05/08 09:37:17;;;;;;;25.05;13.73;;;;;;;;;;5028352;28;20096;-85
2023/05/08 09:39:45;;;;;;;121.72;16.42;;;;;;;;;;5032898;28;20050;-84
2023/05/08 09:42:11;;;;;;;24.80;13.55;;;;;;;;;;5031160;28;20050;-85
2023/05/08 09:44:46;;;;;;;30.73;14.68;;;;;;;;;;5028780;28;20041;-84
2023/05/08 09:47:14;;;;;;;25.25;13.20;;;;;;;;;;5024635;28;20037;-84
2023/05/08 09:49:57;;;;;;;28.10;12.93;;;;;;;;;;5024297;28;20037;-85
2023/05/08 09:52:23;;;;;;;68.90;14.65;;;;;;;;;;5038636;28;20043;-84
2023/05/08 09:55:16;;;;;;;31.67;13.63;;;;;;;;;;5033980;28;20061;-84
2023/05/08 09:57:51;;;;;;;22.88;12.88;;;;;;;;;;5028973;28;20045;-85
2023/05/08 10:00:17;;;;;;;26.10;13.32;;;;;;;;;;5027816;28;20030;-84
2023/05/08 10:02:53;;;;;;;25.80;13.27;;;;;;;;;;5026461;28;20542;-85
2023/05/08 10:05:30;;;;;;;21.70;13.02;;;;;;;;;;5026942;28;20040;-85
2023/05/08 10:08:16;;;;;;;22.70;13.95;;;;;;;;;;5026592;28;20045;-82
2023/05/08 10:10:42;;;;;;;137.68;16.15;;;;;;;;;;5030936;28;20036;-84
2023/05/08 10:13:07;;;;;;;26.67;14.32;;;;;;;;;;5034613;28;20088;-84
2023/05/08 10:15:33;;;;;;;24.00;14.80;;;;;;;;;;5041129;28;20064;-85
2023/05/08 10:18:05;;;;;;;24.70;14.45;;;;;;;;;;5044432;28;20119;-85
2023/05/08 10:20:32;;;;;;;26.27;15.25;;;;;;;;;;5040555;28;20033;-85
2023/05/08 10:22:58;;;;;;;26.88;15.00;;;;;;;;;;5027430;28;20069;-85
2023/05/08 10:25:27;;;;;;;25.58;15.23;;;;;;;;;;5029510;28;20052;-84
2023/05/08 10:27:58;;;;;;;28.58;14.60;;;;;;;;;;5033557;28;20172;-85
2023/05/08 10:30:25;;;;;;;27.20;14.88;;;;;;;;;;5034807;28;20124;-85
2023/05/08 10:32:57;;;;;;;28.92;15.55;;;;;;;;;;5039144;28;20041;-85
2023/05/08 10:35:23;;;;;;;25.60;14.27;;;;;;;;;;5042887;28;20061;-85
2023/05/08 10:37:49;;;;;;;27.98;14.65;;;;;;;;;;5036186;28;20037;-85
2023/05/08 10:40:15;;;;;;;27.17;14.95;;;;;;;;;;5027741;28;20026;-85
2023/05/08 10:42:41;;;;;;;25.48;14.85;;;;;;;;;;5040681;28;20100;-85
2023/05/08 10:45:08;;;;;;;24.98;14.43;;;;;;;;;;5032713;28;20029;-85
2023/05/08 10:47:42;;;;;;;27.75;15.52;;;;;;;;;;5040459;28;20114;-85
2023/05/08 10:50:35;;;;;;;29.08;15.40;;;;;;;;;;5037710;28;20060;-85
2023/05/08 10:53:16;;;;;;;27.98;17.60;;;;;;;;;;5043001;28;20054;-85
2023/05/08 10:55:45;;;;;;;27.13;16.70;;;;;;;;;;5040490;28;20033;-85
2023/05/08 10:58:27;;;;;;;27.33;16.80;;;;;;;;;;5027601;28;20061;-85
2023/05/08 11:00:52;;;;;;;25.98;16.48;;;;;;;;;;5031423;28;20073;-84
2023/05/08 11:03:19;;;;;;;26.88;17.40;;;;;;;;;;5041455;28;20033;-85
2023/05/08 11:05:46;;;;;;;24.27;16.92;;;;;;;;;;5038561;28;20052;-84
2023/05/08 11:08:26;;;;;;;28.83;16.75;;;;;;;;;;5038734;28;20121;-84
2023/05/08 11:11:01;;;;;;;23.80;15.93;;;;;;;;;;5023765;28;20030;-85
2023/05/08 11:13:35;;;;;;;24.30;16.55;;;;;;;;;;5026649;28;20040;-86
2023/05/08 11:16:01;;;;;;;28.38;16.67;;;;;;;;;;5027340;28;20033;-85
2023/05/08 11:18:28;;;;;;;27.00;16.67;;;;;;;;;;5030690;28;20033;-85
2023/05/08 11:21:05;;;;;;;24.58;15.75;;;;;;;;;;5038737;28;20037;-84
2023/05/08 11:23:32;;;;;;;22.85;15.55;;;;;;;;;;5035259;28;20033;-85
2023/05/08 11:26:01;;;;;;;25.95;15.93;;;;;;;;;;5041084;28;20065;-85
2023/05/08 11:28:30;;;;;;;21.88;15.18;;;;;;;;;;5036980;28;20045;-86
2023/05/08 11:30:56;;;;;;;24.67;16.00;;;;;;;;;;5026074;28;20472;-85
2023/05/08 11:33:27;;;;;;;24.27;16.25;;;;;;;;;;5027219;28;20101;-85
2023/05/08 11:36:14;;;;;;;24.13;15.70;;;;;;;;;;5028511;28;20650;-85
2023/05/08 11:38:42;;;;;;;25.02;15.40;;;;;;;;;;5035561;28;20104;-85
2023/05/08 11:41:23;;;;;;;25.52;16.73;;;;;;;;;;5036646;28;20026;-84
2023/05/08 11:44:04;;;;;;;29.38;17.08;;;;;;;;;;5028883;28;20038;-84
2023/05/08 11:46:53;;;;;;;24.20;16.42;;;;;;;;;;5035138;28;20053;-85
2023/05/08 11:49:21;;;;;;;25.15;16.55;;;;;;;;;;5026998;28;20060;-85
2023/05/08 11:51:49;;;;;;;24.60;16.67;;;;;;;;;;5031475;28;20037;-85
2023/05/08 11:54:17;;;;;;;28.30;16.73;;;;;;;;;;5032286;28;20037;-85
2023/05/08 11:56:45;;;;;;;26.45;16.30;;;;;;;;;;5032466;28;20044;-85
2023/05/08 11:59:12;;;;;;;22.13;15.45;;;;;;;;;;5036812;28;20775;-85
2023/05/08 12:01:37;;;;;;;22.40;15.35;;;;;;;;;;5021930;28;20475;-84
2023/05/08 12:04:08;;;;;;;22.63;15.57;;;;;;;;;;5036107;28;20060;-85
2023/05/08 12:06:36;;;;;;;24.75;15.90;;;;;;;;;;5028361;28;20163;-86
2023/05/08 12:09:04;;;;;;;27.30;16.17;;;;;;;;;;5030192;28;20036;-85
2023/05/08 12:11:30;;;;;;;27.60;16.60;;;;;;;;;;5034900;28;20041;-86
2023/05/08 12:13:59;;;;;;;25.38;15.60;;;;;;;;;;5022078;28;20458;-85
2023/05/08 12:16:25;;;;;;;24.00;15.13;;;;;;;;;;5021261;28;20053;-86
2023/05/08 12:18:52;;;;;;;26.85;15.90;;;;;;;;;;5022480;28;20041;-86
2023/05/08 12:21:18;;;;;;;26.10;15.13;;;;;;;;;;5025822;28;20036;-86
2023/05/08 12:23:44;;;;;;;22.77;15.20;;;;;;;;;;5029122;28;20053;-86
2023/05/08 12:26:11;;;;;;;24.98;15.05;;;;;;;;;;5031717;28;20103;-86
2023/05/08 12:28:37;;;;;;;28.10;15.43;;;;;;;;;;5032847;28;20033;-86
2023/05/08 12:31:03;;;;;;;26.67;15.35;;;;;;;;;;5038581;28;20112;-86
2023/05/08 12:33:29;;;;;;;20.42;14.05;;;;;;;;;;5026422;28;20072;-86
2023/05/08 12:35:55;;;;;;;25.70;14.88;;;;;;;;;;5022961;28;20246;-85
2023/05/08 12:38:25;;;;;;;18.67;12.68;;;;;;;;;;5031256;28;20062;-85
2023/05/08 12:40:51;;;;;;;21.50;14.48;;;;;;;;;;5022949;28;20029;-84
2023/05/08 12:43:17;;;;;;;27.70;14.65;;;;;;;;;;5033275;28;20067;-86
2023/05/08 12:45:43;;;;;;;22.80;14.02;;;;;;;;;;5030926;28;20108;-88
2023/05/08 12:48:10;;;;;;;21.88;14.73;;;;;;;;;;5034513;28;20037;-87
2023/05/08 12:50:41;;;;;;;21.77;14.65;;;;;;;;;;5031379;28;20038;-88
2023/05/08 12:53:08;;;;;;;20.98;13.73;;;;;;;;;;5022331;28;20036;-87
2023/05/08 12:55:35;;;;;;;27.00;15.13;;;;;;;;;;5022912;28;20506;-87
2023/05/08 12:58:04;;;;;;;20.20;14.50;;;;;;;;;;5015690;28;20038;-87
2023/05/08 13:00:46;;;;;;;22.50;14.35;;;;;;;;;;5028356;28;20025;-86
2023/05/08 13:03:25;;;;;;;20.73;13.40;;;;;;;;;;5017665;28;20030;-87
2023/05/08 13:05:51;;;;;;;22.52;15.10;;;;;;;;;;5015842;28;20037;-86
2023/05/08 13:08:17;;;;;;;21.00;13.48;;;;;;;;;;5018407;28;20049;-86
2023/05/08 13:10:50;;;;;;;22.10;13.52;;;;;;;;;;5021160;28;20038;-84
2023/05/08 13:13:18;;;;;;;26.03;13.33;;;;;;;;;;5020995;28;20427;-85
2023/05/08 13:15:44;;;;;;;21.13;13.80;;;;;;;;;;5021783;28;20049;-86
2023/05/08 13:18:09;;;;;;;21.73;13.93;;;;;;;;;;5018870;28;20392;-85
2023/05/08 13:20:36;;;;;;;23.38;13.20;;;;;;;;;;5016680;28;20034;-85
2023/05/08 13:23:02;;;;;;;50.42;14.18;;;;;;;;;;5014592;28;20069;-85
2023/05/08 13:25:29;;;;;;;21.05;12.40;;;;;;;;;;5018046;28;20042;-86
2023/05/08 13:27:54;;;;;;;19.70;12.68;;;;;;;;;;5019623;28;20034;-85
2023/05/08 13:30:21;;;;;;;78.55;15.15;;;;;;;;;;5031753;28;20098;-85
2023/05/08 13:32:47;;;;;;;21.52;12.18;;;;;;;;;;5025471;28;20065;-85
2023/05/08 13:35:13;;;;;;;17.10;12.55;;;;;;;;;;5021435;28;20056;-86
2023/05/08 13:37:38;;;;;;;21.00;12.02;;;;;;;;;;5031848;28;20033;-85
2023/05/08 13:40:05;;;;;;;18.35;12.07;;;;;;;;;;5017153;28;20187;-85
2023/05/08 13:42:30;;;;;;;21.67;12.32;;;;;;;;;;5018351;28;20066;-85
2023/05/08 13:44:56;;;;;;;24.83;12.43;;;;;;;;;;5023384;28;20484;-85
2023/05/08 13:47:21;;;;;;;19.48;13.02;;;;;;;;;;5031479;28;20041;-86
2023/05/08 13:49:49;;;;;;;35.72;13.27;;;;;;;;;;5027044;28;20517;-86
2023/05/08 13:52:14;;;;;;;118.80;16.15;;;;;;;;;;5032080;28;20045;-85
2023/05/08 13:54:40;;;;;;;21.70;13.68;;;;;;;;;;5015202;28;20033;-85
2023/05/08 13:57:06;;;;;;;22.73;13.90;;;;;;;;;;5032376;28;20034;-85
2023/05/08 13:59:32;;;;;;;20.92;14.05;;;;;;;;;;5022700;28;20044;-86
2023/05/08 14:01:58;;;;;;;21.85;14.27;;;;;;;;;;5023812;28;20038;-86
2023/05/08 14:04:23;;;;;;;19.58;13.90;;;;;;;;;;5034241;28;20038;-85
2023/05/08 14:06:49;;;;;;;18.70;13.32;;;;;;;;;;5033691;28;20065;-85
2023/05/08 14:09:15;;;;;;;20.23;14.40;;;;;;;;;;5035251;28;20545;-85
2023/05/08 14:11:40;;;;;;;21.63;14.60;;;;;;;;;;5028330;28;20034;-85
2023/05/08 14:14:05;;;;;;;22.02;15.07;;;;;;;;;;5019992;28;20136;-85
2023/05/08 14:16:31;;;;;;;21.55;14.07;;;;;;;;;;5018186;28;20048;-85
2023/05/08 14:18:57;;;;;;;19.55;14.55;;;;;;;;;;5027609;28;20449;-85
2023/05/08 14:21:23;;;;;;;21.83;14.32;;;;;;;;;;5026198;28;20036;-85
2023/05/08 14:23:48;;;;;;;19.10;13.88;;;;;;;;;;5032079;28;20061;-86
2023/05/08 14:26:14;;;;;;;23.17;15.32;;;;;;;;;;5035596;28;20064;-85
2023/05/08 14:28:40;;;;;;;19.33;13.90;;;;;;;;;;5027642;28;20037;-86
2023/05/08 14:31:05;;;;;;;21.70;14.23;;;;;;;;;;5023213;28;20037;-84
2023/05/08 14:33:31;;;;;;;40.63;14.25;;;;;;;;;;5030614;28;20472;-86
2023/05/08 14:35:56;;;;;;;34.28;14.55;;;;;;;;;;5024462;28;20083;-85